Hebron, CT (06248)

5:22 AM EDT on September 02, 2015 (GMT -0400)
At Skinner Lane | | Change Station
CLOSE
Current Station
Personal Weather Station
Location: Hebron, CT
Elevation: 640 ft
Nearby Weather Stations

Elev 640 ft 41.68 °N, 72.37 °W | Updated 23 seconds ago

Partly Cloudy
Partly Cloudy
63.7 °F
Feels Like 63.7 °F
N
0.0
Wind Variable Wind from SE
Gusts 0.0 mph

Today
High -- | Low -- °F
--% Chance of Precip.
Yesterday
High -- | Low -- °F
Precip. -- in
6:16 AM 7:21 PM
Waning Gibbous, 82% visible
Pressure 30.03 in
Visibility 0.2 miles
Clouds
Dew Point 59 °F
Humidity 86%
Rainfall 0.00 in
Snow Depth Not available.
UV Not available.
Pollen 9.80 out of 12
Air Quality Not available.
Flu Activity Not available.
SPECI KIJD 020907Z AUTO 00000KT 1/4SM FG VV002 17/16 A3003 RMK AO2 T01670156
Pressure 30.03 in
Visibility 0.2 miles
Clouds
Dew Point 59 °F
Humidity 86%
Rainfall 0.00 in
Snow Depth Not available.
UV Not available.
Pollen 9.80 out of 12
Air Quality Not available.
Flu Activity Not available.
SPECI KIJD 020907Z AUTO 00000KT 1/4SM FG VV002 17/16 A3003 RMK AO2 T01670156

10-Day Weather Forecast

×

Almanac

Astronomy

Sep. 02, 2015 Rise Set
Actual Time
Civil Twilight
Nautical Twilight
Astronomical Twilight
Moon
Length of Visible Light
Length of Day
Tomorrow will be .
, % of the Moon is Illuminated

Today's Extremes

State Highs State Lows

Community

WunderPhotos

Upload Photos

1,851,730 photos uploaded!

WunderBlogs® & News

Nearby

Air Quality

  Air Quality AQ Index Pollutant
Not available.

Snow Depth

Station Depth Elevation

Earthquake Activity

City Distance Mag. Time & Date
Minimum magnitude displayed is 2.5.

Coastal Water Temperatures

Place Temperature

Stations

Nearby Weather Stations

Station Location Temp. Windchill Dew Point Humidity Wind Precip. Elev Updated Type